Madison, AL (35756)

11:37 PM CDT on September 02, 2015 (GMT -0500)
The Willows | | Change Station
CLOSE
Current Station
Personal Weather Station
Location: Madison, AL
Elevation: 607 ft
Nearby Weather Stations

Elev 607 ft 34.61 °N, 86.75 °W | Updated 2 minutes ago

Partly Cloudy
Partly Cloudy
75.8 °F
Feels Like 75 °F
N
0.0
Wind Variable Wind from North
Gusts 0.0 mph

Today
High -- | Low -- °F
--% Chance of Precip.
Yesterday
High -- | Low -- °F
Precip. -- in
6:20 AM 7:12 PM
Waning Gibbous, 74% visible
Pressure 30.00 in
Visibility 10.0 miles
Clouds Overcast 20000 ft
Heat Index 75 °F
Dew Point 74 °F
Humidity 95%
Rainfall 0.00 in
Snow Depth Not available.
UV 0 out of 12
Pollen 9.10 out of 12
Air Quality Not available.
Flu Activity Not available.
METAR KHSV 030353Z 36003KT 10SM OVC200 24/22 A3003 RMK AO2 SLP159 T02440222
Pressure 30.00 in
Visibility 10.0 miles
Clouds Overcast 20000 ft
Heat Index 75 °F
Dew Point 74 °F
Humidity 95%
Rainfall 0.00 in
Snow Depth Not available.
UV 0 out of 12
Pollen 9.10 out of 12
Air Quality Not available.
Flu Activity Not available.
METAR KHSV 030353Z 36003KT 10SM OVC200 24/22 A3003 RMK AO2 SLP159 T02440222

10-Day Weather Forecast

×

Almanac

Astronomy

Sep. 02, 2015 Rise Set
Actual Time
Civil Twilight
Nautical Twilight
Astronomical Twilight
Moon
Length of Visible Light
Length of Day
Tomorrow will be .
, % of the Moon is Illuminated

Today's Extremes

State Highs State Lows

Community

WunderPhotos

Upload Photos

1,851,913 photos uploaded!

WunderBlogs® & News

Nearby

Air Quality

  Air Quality AQ Index Pollutant
Not available.

Snow Depth

Station Depth Elevation

Earthquake Activity

City Distance Mag. Time & Date
Minimum magnitude displayed is 2.5.

Coastal Water Temperatures

Place Temperature

Stations

Nearby Weather Stations

Station Location Temp. Windchill Dew Point Humidity Wind Precip. Elev Updated Type